Terminal Aerodrome Forecast
Issued by NWS Raleigh/Durham, NC

Home | Current Version | Previous Version | Text Only | Print | Product List | Glossary On
Versions: 1 2 3 4 5 6 7 8 9 10 11 12 13 14 15 16 17 18 19 20 21
000
FTUS42 KRAH 311740
TAFGSO
TAF
KGSO 311740Z 3118/0118 06007KT P6SM SCT035 BKN050
     FM010200 04004KT P6SM SCT015 BKN035
      TEMPO 0109/0112 5SM BR BKN008
     FM011300 06008KT P6SM SCT035 BKN050=

USA.gov is the U.S. government's official web portal to all federal, state and local government web resources and services.